EPGDEPSC

Guest
Details From EPGD - Lech Walesa
To EPSC - Goleniow
Flight Number -
Tags Generated
Created
Modified
Stats Distance 134 nm / 249 km
Max Altitude 0 ft / 0 m
Waypoints 2
Social Downloads 2
Likes 0
Share VATSIM

Download

Looking for another format? Having issues loading an existing format? Contact us
Advertisement - Login to hide

Notes

Generated

Route

EPGD EPSC

ID Type Via Altitude Latitude Longitude Leg Dist Tot Dist Heading (true) Name
O EPGD APT - 0 ft / 0 m 54.38107˚ 18.45205˚ - 0 nm - -
O EPSC APT - 0 ft / 0 m 53.59208˚ 14.88792˚ 134 nm 134 nm 251° / 248° -

Altitude Profile

Advertisement - Login to hide

EPGD

Details ICAO EPGD (GDN)
Name LECH WALESA
Region Poland
Timezone Europe/Warsaw (UTC+2.0)
Stats Elevation 489 ft / 149 m (AMSL)
Location 54.376167° 18.471884°
Runways 1
Magnetic Variation 5.511° E

METAR

EPGD 230530Z VRB01KT 9999 FEW002 13/12 Q1022

Decode

TAF

TAF AMD EPGD 230307Z 2303/2324 VRB03KT 0200 FG BKN001 BECMG 2304/2306 CAVOK BECMG 2308/2311 02010KT

Decode

Departure Runways

ID Width Length Bearing (true) Bearing (mag) Surface Threshold Offset Overrun Length
11 148 ft / 45 m 9,158 ft / 2,791 m 112.96° 107.45° Asphalt 0 ft / 0 m 0 ft / 0 m
29 148 ft / 45 m 9,158 ft / 2,791 m 293.00° 287.49° Asphalt 0 ft / 0 m 0 ft / 0 m

EPSC

Details ICAO EPSC (SZZ)
Name GOLENIOW
Region Poland
Timezone Europe/Warsaw (UTC+2.0)
Stats Elevation 154 ft / 47 m (AMSL)
Location 53.584731° 14.902195°
Runways 1
Magnetic Variation 4.358° E

METAR

EPSC 230530Z 05004KT 350V090 CAVOK 13/08 Q1022

Decode

TAF

TAF EPSC 222330Z 2300/2324 04006KT CAVOK

Decode

Destination Runways

ID Width Length Bearing (true) Bearing (mag) Surface Threshold Offset Overrun Length
13 197 ft / 60 m 8,187 ft / 2,495 m 130.94° 126.58° Concrete 0 ft / 0 m 0 ft / 0 m
31 197 ft / 60 m 8,187 ft / 2,495 m 310.96° 306.60° Concrete 0 ft / 0 m 0 ft / 0 m

Approach Navaids

Runway Type Ident Frequency Range Bearing (true) Bearing (mag) Slope Elevation
31 Localiser SZC 110.50 MHz 18 nm / 33 km 310.93° 306.58° - 154 ft / 47 m (AMSL)
31 Glidescope SZC 110.50 MHz 10 nm / 19 km 310.95° 306.59° 3.00° 154 ft / 47 m (AMSL)
31 DME SZC 110.50 MHz 18 nm / 33 km - - - 197 ft / 60 m (AMSL)

Popular Alternatives